Time;durP1;ratioP1;P1;durP2;ratioP2;P2;SDS_P1;SDS_P2;PMS_P1;PMS_P2;Temp;Humidity;BMP_temperature;BMP_pressure;BME280_temperature;BME280_humidity;BME280_pressure;Samples;Min_cycle;Max_cycle;Signal;HPM_P1;HPM_P2
2021/06/03 00:00:38;;;;;;;3.80;2.50;;;15.40;70.10;;;;;;5109373;28;20020;-71
2021/06/03 00:03:08;;;;;;;7.50;2.67;;;15.40;70.00;;;;;;5114255;28;20481;-70
2021/06/03 00:05:50;;;;;;;6.68;2.53;;;15.40;69.80;;;;;;5112668;28;20035;-72
2021/06/03 00:08:18;;;;;;;7.00;2.40;;;15.30;69.60;;;;;;5107655;28;20032;-71
2021/06/03 00:11:04;;;;;;;7.10;3.10;;;15.40;69.60;;;;;;5108113;28;20053;-71
2021/06/03 00:13:33;;;;;;;5.90;2.67;;;15.30;69.60;;;;;;5111244;28;20066;-71
2021/06/03 00:16:03;;;;;;;6.28;3.17;;;15.30;69.60;;;;;;5112486;28;20385;-71
2021/06/03 00:18:29;;;;;;;6.38;2.80;;;15.30;69.70;;;;;;5107207;28;20028;-70
2021/06/03 00:20:55;;;;;;;6.65;2.55;;;15.20;69.80;;;;;;5111737;28;20039;-71
2021/06/03 00:23:21;;;;;;;8.18;2.53;;;15.30;69.90;;;;;;5114122;27;20103;-71
2021/06/03 00:25:47;;;;;;;5.43;2.50;;;15.20;69.60;;;;;;5107911;28;20188;-71
2021/06/03 00:28:13;;;;;;;9.70;2.70;;;15.20;69.60;;;;;;5101511;28;20042;-68
2021/06/03 00:30:38;;;;;;;6.18;3.03;;;15.20;69.50;;;;;;5113280;28;20026;-69
2021/06/03 00:33:04;;;;;;;5.70;2.80;;;15.20;69.40;;;;;;5102185;28;20074;-68
2021/06/03 00:35:30;;;;;;;6.28;2.67;;;15.20;69.50;;;;;;5097962;28;20063;-69
2021/06/03 00:37:56;;;;;;;6.72;2.90;;;15.20;69.50;;;;;;5112397;27;20024;-69
2021/06/03 00:40:22;;;;;;;6.32;2.60;;;15.10;69.50;;;;;;5109466;28;20035;-68
2021/06/03 00:42:48;;;;;;;8.13;3.10;;;15.20;69.60;;;;;;5107513;28;20028;-68
2021/06/03 00:45:18;;;;;;;5.80;2.70;;;15.10;69.70;;;;;;5102877;28;20456;-69
2021/06/03 00:47:44;;;;;;;5.78;2.58;;;15.10;70.00;;;;;;5105450;28;20016;-68
2021/06/03 00:50:20;;;;;;;6.10;2.63;;;15.10;70.10;;;;;;5112846;28;20076;-68
2021/06/03 00:52:46;;;;;;;4.72;2.53;;;15.00;70.10;;;;;;5106710;28;20072;-68
2021/06/03 00:55:12;;;;;;;7.03;2.70;;;15.00;70.30;;;;;;5101691;28;20039;-68
2021/06/03 00:57:38;;;;;;;6.93;2.80;;;15.00;70.40;;;;;;5103154;28;20053;-68
2021/06/03 01:00:07;;;;;;;6.70;2.38;;;15.00;70.20;;;;;;5107931;28;20036;-70
2021/06/03 01:02:32;;;;;;;5.72;2.70;;;15.00;70.30;;;;;;5111108;28;20051;-68
2021/06/03 01:04:58;;;;;;;7.88;2.88;;;15.00;70.20;;;;;;5113105;28;20086;-68
2021/06/03 01:07:24;;;;;;;4.25;2.50;;;14.90;70.20;;;;;;5112356;28;20114;-68
2021/06/03 01:09:59;;;;;;;8.43;2.58;;;14.90;70.10;;;;;;5102828;28;20056;-68
2021/06/03 01:12:32;;;;;;;6.45;2.97;;;14.90;70.00;;;;;;5104081;28;20027;-72
2021/06/03 01:15:05;;;;;;;4.35;2.50;;;14.90;70.00;;;;;;5103136;28;20428;-68
2021/06/03 01:17:31;;;;;;;5.82;3.22;;;14.90;69.90;;;;;;5110976;28;20024;-68
2021/06/03 01:19:58;;;;;;;5.75;2.60;;;14.90;69.90;;;;;;5106857;28;20027;-69
2021/06/03 01:22:39;;;;;;;5.32;2.10;;;14.90;70.00;;;;;;5112674;28;20061;-68
2021/06/03 01:25:09;;;;;;;6.22;2.60;;;14.90;70.00;;;;;;5099254;28;20398;-69
2021/06/03 01:27:35;;;;;;;5.85;2.30;;;14.90;69.90;;;;;;5087985;28;20493;-69
2021/06/03 01:30:20;;;;;;;8.02;2.53;;;14.90;69.90;;;;;;5090887;28;20053;-69
2021/06/03 01:32:56;;;;;;;6.78;2.45;;;14.90;69.90;;;;;;5092081;28;20026;-69
2021/06/03 01:35:29;;;;;;;6.65;2.55;;;14.80;69.80;;;;;;5092158;28;20024;-69
2021/06/03 01:37:56;;;;;;;5.68;2.30;;;14.80;69.80;;;;;;5092888;28;20024;-69
2021/06/03 01:40:23;;;;;;;4.97;2.90;;;14.80;69.80;;;;;;5090905;28;20028;-69
2021/06/03 01:42:49;;;;;;;4.65;2.22;;;14.80;69.80;;;;;;5107265;28;20035;-69
2021/06/03 01:45:16;;;;;;;6.90;2.50;;;14.80;69.90;;;;;;5107862;28;20378;-69
2021/06/03 01:47:45;;;;;;;3.97;2.50;;;14.80;69.90;;;;;;5090392;28;20056;-69
2021/06/03 01:50:12;;;;;;;6.00;2.70;;;14.70;69.70;;;;;;5090943;28;20029;-69
2021/06/03 01:52:39;;;;;;;6.88;3.10;;;14.80;69.70;;;;;;5107256;28;20077;-69
2021/06/03 01:55:07;;;;;;;3.90;2.20;;;14.80;69.70;;;;;;5092296;28;20085;-69
2021/06/03 01:57:33;;;;;;;4.95;2.65;;;14.70;69.50;;;;;;5091420;28;20020;-69
2021/06/03 01:59:58;;;;;;;6.57;2.28;;;14.70;69.60;;;;;;5107507;28;20474;-68
2021/06/03 02:02:24;;;;;;;6.97;2.40;;;14.70;69.60;;;;;;5091041;28;20134;-70
2021/06/03 02:04:50;;;;;;;4.70;2.50;;;14.70;69.40;;;;;;5091400;28;20401;-69
2021/06/03 02:07:16;;;;;;;6.18;2.38;;;14.70;69.40;;;;;;5090338;28;20110;-69
2021/06/03 02:09:42;;;;;;;6.68;2.58;;;14.70;69.20;;;;;;5090245;28;20027;-69
2021/06/03 02:12:11;;;;;;;5.78;2.53;;;14.70;69.20;;;;;;5091025;28;20020;-68
2021/06/03 02:14:40;;;;;;;7.75;2.33;;;14.70;69.30;;;;;;5091265;28;20428;-69
2021/06/03 02:17:22;;;;;;;7.07;2.55;;;14.70;69.30;;;;;;5092114;28;20416;-69
2021/06/03 02:20:07;;;;;;;4.07;2.40;;;14.60;69.10;;;;;;5091488;28;20486;-69
2021/06/03 02:22:35;;;;;;;7.32;2.33;;;14.60;69.10;;;;;;5090554;28;20470;-69
2021/06/03 02:25:01;;;;;;;5.93;2.65;;;14.60;69.70;;;;;;5095337;28;20069;-69
2021/06/03 02:27:27;;;;;;;7.22;2.30;;;14.60;69.00;;;;;;5095806;28;20028;-69
2021/06/03 02:29:53;;;;;;;7.88;2.75;;;14.60;69.10;;;;;;5094577;28;20462;-69
2021/06/03 02:32:21;;;;;;;6.65;2.80;;;14.60;69.10;;;;;;5095158;28;20032;-69
2021/06/03 02:34:48;;;;;;;8.88;2.60;;;14.60;69.10;;;;;;5094302;28;20070;-69
2021/06/03 02:37:16;;;;;;;6.72;2.50;;;14.60;69.10;;;;;;5094925;28;20024;-69
2021/06/03 02:39:45;;;;;;;7.32;2.38;;;14.60;69.10;;;;;;5095133;28;20044;-69
2021/06/03 02:42:11;;;;;;;5.80;2.45;;;14.60;69.10;;;;;;5094936;28;20020;-68
2021/06/03 02:44:37;;;;;;;4.85;2.40;;;14.60;69.20;;;;;;5093514;28;20071;-69
2021/06/03 02:47:05;;;;;;;8.45;2.58;;;14.60;69.10;;;;;;5093794;28;20488;-69
2021/06/03 02:49:31;;;;;;;4.60;2.42;;;14.60;69.30;;;;;;5110883;28;20035;-69
2021/06/03 02:52:01;;;;;;;10.05;2.80;;;14.60;69.20;;;;;;5093455;28;20028;-68
2021/06/03 02:54:27;;;;;;;5.38;2.55;;;14.60;69.40;;;;;;5093595;28;20059;-72
2021/06/03 02:56:53;;;;;;;5.18;2.40;;;14.60;69.40;;;;;;5110949;28;20369;-69
2021/06/03 02:59:19;;;;;;;5.65;2.42;;;14.60;69.20;;;;;;5093459;28;20114;-69
2021/06/03 03:01:44;;;;;;;6.03;2.60;;;14.60;69.20;;;;;;5095118;28;20020;-69
2021/06/03 03:04:10;;;;;;;5.28;2.33;;;14.70;69.20;;;;;;5094137;28;20095;-70
2021/06/03 03:06:36;;;;;;;4.78;2.35;;;14.60;69.10;;;;;;5094761;28;20036;-69
2021/06/03 03:09:02;;;;;;;4.70;2.45;;;14.60;68.90;;;;;;5092804;28;20028;-70
2021/06/03 03:11:28;;;;;;;4.80;2.83;;;14.70;69.00;;;;;;5095636;28;20024;-68
2021/06/03 03:13:54;;;;;;;7.57;2.47;;;14.70;69.00;;;;;;5094923;28;20374;-69
2021/06/03 03:16:19;;;;;;;8.32;2.47;;;14.70;68.90;;;;;;5094156;28;20036;-69
2021/06/03 03:18:45;;;;;;;9.50;2.30;;;14.70;68.60;;;;;;5094304;28;20127;-68
2021/06/03 03:21:11;;;;;;;5.40;2.30;;;14.70;68.60;;;;;;5093325;28;20050;-69
2021/06/03 03:23:36;;;;;;;5.68;2.20;;;14.70;68.80;;;;;;5094127;28;20028;-71
2021/06/03 03:26:02;;;;;;;4.00;2.45;;;14.80;68.70;;;;;;5093883;28;20028;-69
2021/06/03 03:28:28;;;;;;;5.60;2.47;;;14.80;68.50;;;;;;5094280;28;20028;-69
2021/06/03 03:30:54;;;;;;;6.75;2.30;;;14.80;68.50;;;;;;5076074;28;20031;-69
2021/06/03 03:33:21;;;;;;;5.88;2.65;;;14.80;68.60;;;;;;5093596;28;20057;-69
2021/06/03 03:35:47;;;;;;;3.25;2.08;;;14.90;68.60;;;;;;5094273;28;20035;-69
2021/06/03 03:38:17;;;;;;;5.18;2.50;;;14.80;68.20;;;;;;5093712;28;20047;-69
2021/06/03 03:40:44;;;;;;;5.82;2.80;;;14.80;68.10;;;;;;5090163;28;20024;-69
2021/06/03 03:43:10;;;;;;;4.18;2.20;;;14.90;68.10;;;;;;5093314;28;20035;-72
2021/06/03 03:45:36;;;;;;;4.78;2.20;;;14.90;68.00;;;;;;5092847;28;20028;-70
2021/06/03 03:48:03;;;;;;;5.43;2.40;;;15.00;67.90;;;;;;5094175;28;20081;-68
2021/06/03 03:50:31;;;;;;;7.18;3.05;;;15.00;67.60;;;;;;5093003;28;20050;-69
2021/06/03 03:52:56;;;;;;;5.72;2.85;;;15.00;67.60;;;;;;5093684;28;20107;-69
2021/06/03 03:55:22;;;;;;;5.35;2.35;;;15.10;67.50;;;;;;5092367;28;20136;-70
2021/06/03 03:57:49;;;;;;;5.30;2.30;;;15.10;67.50;;;;;;5091917;28;20032;-69
2021/06/03 04:00:20;;;;;;;4.60;2.30;;;15.20;67.40;;;;;;5089141;28;20024;-69
2021/06/03 04:02:45;;;;;;;7.68;2.40;;;15.20;67.00;;;;;;5077055;28;20139;-72
2021/06/03 04:05:11;;;;;;;9.70;3.88;;;15.30;67.20;;;;;;5075712;28;20108;-71
2021/06/03 04:07:39;;;;;;;6.25;3.03;;;15.30;66.60;;;;;;5074535;28;20036;-71
2021/06/03 04:10:08;;;;;;;7.80;2.50;;;15.40;66.40;;;;;;5081216;28;20028;-71
2021/06/03 04:12:34;;;;;;;4.93;2.42;;;15.40;66.40;;;;;;5092241;28;20040;-71
2021/06/03 04:15:00;;;;;;;5.80;2.45;;;15.50;66.70;;;;;;5093566;28;20032;-72
2021/06/03 04:17:26;;;;;;;6.65;2.40;;;15.60;66.30;;;;;;5092585;28;20024;-71
2021/06/03 04:19:52;;;;;;;5.25;2.35;;;15.70;65.90;;;;;;5090916;28;20080;-71
2021/06/03 04:22:17;;;;;;;5.78;3.70;;;15.70;65.90;;;;;;5092187;28;20032;-72
2021/06/03 04:24:43;;;;;;;8.55;4.10;;;15.80;65.50;;;;;;5092199;28;20020;-73
2021/06/03 04:27:09;;;;;;;8.10;4.97;;;15.80;65.20;;;;;;5091639;28;20448;-70
2021/06/03 04:29:35;;;;;;;8.85;3.85;;;15.90;65.20;;;;;;5091398;28;20024;-70
2021/06/03 04:32:00;;;;;;;9.73;4.05;;;15.90;65.20;;;;;;5087590;28;20362;-68
2021/06/03 04:34:26;;;;;;;14.95;6.25;;;16.10;64.90;;;;;;5085658;28;20032;-70
2021/06/03 04:36:52;;;;;;;15.85;7.30;;;16.20;64.90;;;;;;5091099;28;20047;-69
2021/06/03 04:39:18;;;;;;;11.63;5.50;;;16.40;64.40;;;;;;5090085;28;20046;-67
2021/06/03 04:41:44;;;;;;;10.20;4.97;;;16.60;64.40;;;;;;5091027;28;20073;-67
2021/06/03 04:44:09;;;;;;;7.88;3.97;;;16.90;64.50;;;;;;5084070;28;20024;-68
2021/06/03 04:46:35;;;;;;;10.68;3.35;;;17.30;64.40;;;;;;5081598;28;20074;-69
2021/06/03 04:49:01;;;;;;;8.27;3.72;;;17.70;63.50;;;;;;5090853;28;20016;-73
2021/06/03 04:51:26;;;;;;;6.93;3.30;;;18.10;62.50;;;;;;5084829;28;20470;-71
2021/06/03 04:53:52;;;;;;;5.47;2.50;;;18.40;61.60;;;;;;5086696;28;21253;-72
2021/06/03 04:56:18;;;;;;;6.97;3.60;;;18.80;61.10;;;;;;5089778;28;20046;-74
2021/06/03 04:58:43;;;;;;;4.80;2.92;;;18.90;60.00;;;;;;5088186;28;20139;-74
2021/06/03 05:01:09;;;;;;;4.30;2.95;;;19.00;59.10;;;;;;5086268;28;20043;-74
2021/06/03 05:03:35;;;;;;;8.23;2.45;;;19.10;58.50;;;;;;5077382;28;20448;-74
2021/06/03 05:06:01;;;;;;;6.55;2.30;;;19.10;58.70;;;;;;5088589;28;20024;-73
2021/06/03 05:08:27;;;;;;;5.38;2.38;;;19.30;59.10;;;;;;5088138;28;20020;-74
2021/06/03 05:10:53;;;;;;;12.38;3.85;;;19.40;57.80;;;;;;5085562;28;20209;-74
2021/06/03 05:13:18;;;;;;;7.55;3.22;;;19.40;57.90;;;;;;5090852;28;20020;-72
2021/06/03 05:15:44;;;;;;;4.57;2.45;;;19.70;57.50;;;;;;5094624;28;20508;-79
2021/06/03 05:18:10;;;;;;;5.95;2.17;;;19.90;56.50;;;;;;5090573;28;20040;-76
2021/06/03 05:20:36;;;;;;;5.70;2.20;;;20.10;56.40;;;;;;5085298;28;20041;-77
2021/06/03 05:23:02;;;;;;;6.53;2.58;;;20.40;56.30;;;;;;5090065;28;20048;-87
2021/06/03 05:25:30;;;;;;;6.75;2.60;;;20.70;55.10;;;;;;5084453;28;20076;-79
2021/06/03 05:28:00;;;;;;;6.70;2.50;;;21.20;54.40;;;;;;5090779;28;20423;-77
2021/06/03 05:30:26;;;;;;;11.32;2.92;;;21.50;53.90;;;;;;5088410;28;20020;-71
2021/06/03 05:32:52;;;;;;;5.90;2.20;;;22.00;53.70;;;;;;5087903;28;20028;-69
2021/06/03 05:35:20;;;;;;;4.88;2.10;;;22.40;53.10;;;;;;5091335;28;20032;-84
2021/06/03 05:37:47;;;;;;;5.13;2.30;;;22.70;52.20;;;;;;5091484;28;20038;-82
2021/06/03 05:40:19;;;;;;;4.50;2.30;;;22.90;51.00;;;;;;5092571;28;20438;-81
2021/06/03 05:42:47;;;;;;;7.40;3.80;;;23.00;50.20;;;;;;5090838;28;20117;-81
2021/06/03 05:45:14;;;;;;;5.63;2.40;;;23.20;50.10;;;;;;5090206;28;20089;-77
2021/06/03 05:47:40;;;;;;;6.00;2.10;;;23.40;49.60;;;;;;5092198;28;20028;-82
2021/06/03 05:50:08;;;;;;;6.20;2.10;;;23.60;48.70;;;;;;5091036;28;20051;-79
2021/06/03 05:52:35;;;;;;;4.63;2.08;;;23.70;48.00;;;;;;5092073;28;20020;-79
2021/06/03 05:55:02;;;;;;;4.50;2.28;;;23.70;47.80;;;;;;5090934;28;20036;-80
2021/06/03 05:57:27;;;;;;;3.22;2.00;;;23.50;47.60;;;;;;5093816;28;20020;-80
2021/06/03 05:59:53;;;;;;;5.20;2.00;;;23.40;47.70;;;;;;5092412;28;20043;-79
2021/06/03 06:02:27;;;;;;;7.65;2.40;;;23.30;48.40;;;;;;5093260;28;20020;-80
2021/06/03 06:07:38;;;;;;;6.18;2.10;;;23.30;48.60;;;;;;5082296;28;20086;-79
2021/06/03 06:10:04;;;;;;;4.68;2.17;;;23.40;48.70;;;;;;5094290;28;20024;-79
2021/06/03 06:12:30;;;;;;;3.15;2.00;;;23.40;48.50;;;;;;5093764;28;20078;-79
2021/06/03 06:14:55;;;;;;;5.28;2.22;;;23.20;48.10;;;;;;5094536;28;20439;-79
2021/06/03 06:17:21;;;;;;;6.18;2.60;;;23.10;48.10;;;;;;5095261;28;20394;-80
2021/06/03 06:19:47;;;;;;;7.78;2.53;;;23.00;48.70;;;;;;5081202;28;20055;-80
2021/06/03 06:22:12;;;;;;;5.45;2.28;;;23.00;49.10;;;;;;5094175;28;20025;-80
2021/06/03 06:24:38;;;;;;;5.18;2.10;;;23.00;48.50;;;;;;5093158;28;20066;-79
2021/06/03 06:27:05;;;;;;;6.05;2.10;;;22.90;47.70;;;;;;5095578;28;20028;-80
2021/06/03 06:29:30;;;;;;;6.30;2.17;;;22.70;47.60;;;;;;5111583;28;20032;-79
2021/06/03 06:31:56;;;;;;;5.47;2.10;;;22.60;47.60;;;;;;5095395;28;20395;-79
2021/06/03 06:34:22;;;;;;;3.58;1.90;;;22.40;47.70;;;;;;5093835;28;20035;-79
2021/06/03 06:36:48;;;;;;;4.80;1.90;;;22.30;47.50;;;;;;5093108;28;20043;-79
2021/06/03 06:39:17;;;;;;;5.47;2.05;;;22.10;47.50;;;;;;5095629;28;20378;-79
2021/06/03 06:41:44;;;;;;;5.22;2.00;;;22.20;48.10;;;;;;5093751;28;20024;-79
2021/06/03 06:44:09;;;;;;;6.60;2.20;;;22.10;47.80;;;;;;5111501;28;20035;-78
2021/06/03 06:46:35;;;;;;;5.68;1.90;;;22.00;48.00;;;;;;5094904;28;20036;-79
2021/06/03 06:49:01;;;;;;;4.85;2.20;;;21.90;48.40;;;;;;5094617;28;20103;-79
2021/06/03 06:51:26;;;;;;;4.43;1.90;;;21.80;49.10;;;;;;5095196;28;20492;-79
2021/06/03 06:53:52;;;;;;;6.60;2.20;;;22.00;49.00;;;;;;5095259;28;20543;-79
2021/06/03 06:56:18;;;;;;;7.18;2.47;;;21.90;48.40;;;;;;5094792;28;20036;-79
2021/06/03 06:58:43;;;;;;;6.07;2.50;;;22.00;48.40;;;;;;5093942;28;20129;-79
2021/06/03 07:01:09;;;;;;;6.10;2.30;;;22.10;48.60;;;;;;5095229;28;20103;-79
2021/06/03 07:03:35;;;;;;;6.43;2.67;;;22.20;49.00;;;;;;5095261;28;20032;-80
2021/06/03 07:06:01;;;;;;;4.47;1.95;;;22.40;49.10;;;;;;5094946;28;20024;-79
2021/06/03 07:08:26;;;;;;;6.32;2.10;;;22.70;48.90;;;;;;5093668;28;20496;-81
2021/06/03 07:10:54;;;;;;;5.30;1.92;;;22.80;48.30;;;;;;5094478;28;20091;-80
2021/06/03 07:13:21;;;;;;;4.82;2.28;;;22.90;47.80;;;;;;5094833;28;20032;-79
2021/06/03 07:15:46;;;;;;;7.20;2.10;;;22.80;47.90;;;;;;5094291;28;20496;-79
2021/06/03 07:18:12;;;;;;;3.83;1.73;;;22.70;47.20;;;;;;5093518;28;20020;-79
2021/06/03 07:20:38;;;;;;;3.88;1.90;;;22.60;47.00;;;;;;5094001;28;20052;-79
2021/06/03 07:23:05;;;;;;;3.42;2.05;;;22.70;47.80;;;;;;5094450;28;20020;-79
2021/06/03 07:25:36;;;;;;;4.20;2.03;;;22.70;47.20;;;;;;5093634;28;20063;-79
2021/06/03 07:28:03;;;;;;;6.90;2.35;;;22.70;46.50;;;;;;5092973;28;20030;-79
2021/06/03 07:30:29;;;;;;;3.42;1.73;;;22.70;46.80;;;;;;5094236;28;20028;-78
2021/06/03 07:32:56;;;;;;;4.68;1.60;;;22.60;46.40;;;;;;5094319;28;20070;-79
2021/06/03 07:35:23;;;;;;;5.05;2.22;;;22.50;46.20;;;;;;5092603;28;20028;-79
2021/06/03 07:37:50;;;;;;;7.15;3.15;;;22.60;46.50;;;;;;5110184;28;20024;-79
2021/06/03 07:40:19;;;;;;;7.97;1.88;;;22.90;46.30;;;;;;5092998;28;20048;-77
2021/06/03 07:42:45;;;;;;;6.85;1.83;;;23.10;46.10;;;;;;5093794;28;20833;-78
2021/06/03 07:45:12;;;;;;;3.13;1.98;;;23.40;46.30;;;;;;5092659;28;20053;-78
2021/06/03 07:47:39;;;;;;;6.15;1.95;;;23.80;45.80;;;;;;5093256;28;20024;-79
2021/06/03 07:50:07;;;;;;;5.45;1.65;;;24.10;44.80;;;;;;5094190;28;20546;-78
2021/06/03 07:52:35;;;;;;;6.70;2.00;;;24.10;44.30;;;;;;5093131;28;20374;-77
2021/06/03 07:55:01;;;;;;;6.15;2.22;;;24.20;44.60;;;;;;5094232;28;20134;-77
2021/06/03 07:57:26;;;;;;;5.85;1.90;;;24.40;44.80;;;;;;5094182;28;20071;-78
2021/06/03 07:59:52;;;;;;;7.07;1.90;;;24.50;44.50;;;;;;5094131;28;20054;-77
2021/06/03 08:02:18;;;;;;;6.85;2.03;;;24.50;44.10;;;;;;5092321;28;20028;-77
2021/06/03 08:04:43;;;;;;;3.80;1.80;;;24.60;44.10;;;;;;5093277;28;20331;-77
2021/06/03 08:07:09;;;;;;;5.72;2.00;;;24.60;43.80;;;;;;5091983;28;20485;-77
2021/06/03 08:09:35;;;;;;;3.60;1.83;;;24.70;43.30;;;;;;5092324;28;20493;-77
2021/06/03 08:12:00;;;;;;;4.72;1.83;;;24.60;42.90;;;;;;5092310;28;20027;-78
2021/06/03 08:14:26;;;;;;;3.00;1.70;;;24.50;43.10;;;;;;5092962;28;20432;-77
2021/06/03 08:16:52;;;;;;;6.05;1.83;;;24.60;44.00;;;;;;5093468;28;20034;-78
2021/06/03 08:19:20;;;;;;;5.57;1.70;;;24.80;43.60;;;;;;5093073;28;20032;-78
2021/06/03 08:21:46;;;;;;;4.20;2.00;;;24.90;43.10;;;;;;5092910;28;20059;-78
2021/06/03 08:24:12;;;;;;;8.40;2.10;;;25.10;42.30;;;;;;5093421;28;20070;-78
2021/06/03 08:26:38;;;;;;;5.07;1.55;;;25.10;43.00;;;;;;5091766;28;20023;-78
2021/06/03 08:29:04;;;;;;;4.85;1.63;;;25.20;42.40;;;;;;5091628;28;20028;-78
2021/06/03 08:31:29;;;;;;;6.30;2.00;;;25.30;42.00;;;;;;5091848;28;20016;-78
2021/06/03 08:34:01;;;;;;;3.45;1.65;;;25.50;41.60;;;;;;5093017;28;20061;-78
2021/06/03 08:36:27;;;;;;;6.45;2.00;;;25.70;41.30;;;;;;5093511;28;20063;-78
2021/06/03 08:38:53;;;;;;;5.30;1.60;;;25.80;41.90;;;;;;5092853;28;20024;-79
2021/06/03 08:41:19;;;;;;;3.17;1.48;;;26.30;42.00;;;;;;5108895;28;20053;-79
2021/06/03 08:43:45;;;;;;;5.28;2.00;;;26.60;40.90;;;;;;5092845;28;20028;-79
2021/06/03 08:46:11;;;;;;;4.78;1.70;;;27.00;41.20;;;;;;5093252;28;20039;-79
2021/06/03 08:48:36;;;;;;;3.95;1.73;;;27.50;41.50;;;;;;5092442;28;20035;-79
2021/06/03 08:51:05;;;;;;;2.70;1.50;;;27.80;40.60;;;;;;5091882;28;20024;-80
2021/06/03 08:53:32;;;;;;;4.13;1.75;;;28.10;39.50;;;;;;5092290;28;20181;-79
2021/06/03 08:56:14;;;;;;;2.92;1.63;;;28.00;38.80;;;;;;5092522;28;20060;-80
2021/06/03 08:58:41;;;;;;;7.18;1.67;;;28.20;39.70;;;;;;5090832;28;20051;-79
2021/06/03 09:01:13;;;;;;;3.13;2.00;;;28.60;39.20;;;;;;5093103;28;20128;-80
2021/06/03 09:03:40;;;;;;;5.65;2.00;;;28.70;38.80;;;;;;5108779;28;20382;-79
2021/06/03 09:06:06;;;;;;;3.58;1.85;;;28.50;37.90;;;;;;5108228;28;20024;-78
2021/06/03 09:08:34;;;;;;;4.65;1.90;;;28.00;37.90;;;;;;5100181;28;20518;-79
2021/06/03 09:11:19;;;;;;;8.63;2.00;;;27.50;38.70;;;;;;5105692;28;20527;-79
2021/06/03 09:13:50;;;;;;;5.63;2.20;;;27.20;38.80;;;;;;5092557;28;20433;-79
2021/06/03 09:16:28;;;;;;;4.78;2.17;;;27.20;38.80;;;;;;5092611;28;20441;-78
2021/06/03 09:19:11;;;;;;;3.90;1.70;;;27.10;38.80;;;;;;5108597;28;20106;-78
2021/06/03 09:21:44;;;;;;;5.38;2.20;;;26.70;38.50;;;;;;5078062;28;20054;-78
2021/06/03 09:24:13;;;;;;;5.90;1.90;;;26.30;39.20;;;;;;5091358;28;20024;-78
2021/06/03 09:26:45;;;;;;;4.22;2.00;;;26.00;40.10;;;;;;5092298;28;20032;-78
2021/06/03 09:29:12;;;;;;;5.00;2.10;;;25.80;40.60;;;;;;5092929;28;20025;-78
2021/06/03 09:31:39;;;;;;;3.05;1.92;;;25.50;40.80;;;;;;5091479;28;20040;-78
2021/06/03 09:34:08;;;;;;;5.70;2.10;;;25.10;41.00;;;;;;5096525;28;20036;-77
2021/06/03 09:36:46;;;;;;;6.75;2.03;;;24.80;42.00;;;;;;5095914;28;20035;-78
2021/06/03 09:39:12;;;;;;;4.10;1.73;;;24.80;42.10;;;;;;5095919;28;20107;-77
2021/06/03 09:41:45;;;;;;;7.32;2.10;;;24.60;42.00;;;;;;5096847;28;20100;-77
2021/06/03 09:44:13;;;;;;;3.92;1.90;;;24.70;42.10;;;;;;5095676;28;20381;-77
2021/06/03 09:46:42;;;;;;;5.57;1.83;;;24.60;42.60;;;;;;5094896;28;20036;-77
2021/06/03 09:49:14;;;;;;;9.73;4.20;;;24.40;42.50;;;;;;5094866;28;20020;-77
2021/06/03 09:51:43;;;;;;;5.85;2.35;;;24.10;43.20;;;;;;5096479;28;20020;-77
2021/06/03 09:54:12;;;;;;;5.50;1.90;;;24.20;43.60;;;;;;5096281;28;20035;-77
2021/06/03 09:56:40;;;;;;;4.68;1.98;;;24.30;43.70;;;;;;5096493;28;20081;-77
2021/06/03 09:59:31;;;;;;;5.80;2.30;;;24.30;44.60;;;;;;5094508;28;20485;-77
2021/06/03 10:02:03;;;;;;;4.03;1.92;;;24.90;45.20;;;;;;5083240;28;20052;-77
2021/06/03 10:04:37;;;;;;;7.05;1.90;;;25.70;44.40;;;;;;5111408;28;20462;-77
2021/06/03 10:07:04;;;;;;;8.90;2.10;;;26.20;44.60;;;;;;5094923;28;20495;-76
2021/06/03 10:09:40;;;;;;;3.60;2.08;;;26.60;42.90;;;;;;5094936;28;20073;-77
2021/06/03 10:12:08;;;;;;;6.47;2.17;;;26.60;42.10;;;;;;5095964;28;20032;-78
2021/06/03 10:14:34;;;;;;;4.95;1.98;;;26.50;42.00;;;;;;5095736;28;20422;-77
2021/06/03 10:17:27;;;;;;;7.43;1.98;;;26.30;41.60;;;;;;5094997;28;20055;-77
2021/06/03 10:19:55;;;;;;;5.18;2.22;;;26.00;41.90;;;;;;5080737;28;20024;-77
2021/06/03 10:22:25;;;;;;;6.97;1.83;;;25.60;42.70;;;;;;5096043;28;20108;-77
2021/06/03 10:24:59;;;;;;;3.90;1.80;;;25.20;43.30;;;;;;5095768;28;20420;-77
2021/06/03 10:27:30;;;;;;;4.40;2.08;;;24.80;43.60;;;;;;5094805;28;20077;-77
2021/06/03 10:29:56;;;;;;;4.68;2.03;;;24.40;43.50;;;;;;5095505;28;20028;-76
2021/06/03 10:32:26;;;;;;;5.05;2.50;;;24.00;43.60;;;;;;5094376;28;20072;-77
2021/06/03 10:34:53;;;;;;;4.28;2.08;;;23.60;44.30;;;;;;5110232;28;20032;-77
2021/06/03 10:37:20;;;;;;;5.07;2.10;;;23.30;44.90;;;;;;5094414;28;20025;-78
2021/06/03 10:39:50;;;;;;;3.60;2.10;;;23.20;45.10;;;;;;5095628;28;20020;-77
2021/06/03 10:42:17;;;;;;;4.13;1.90;;;23.10;45.50;;;;;;5095020;28;20020;-78
2021/06/03 10:44:44;;;;;;;7.05;2.20;;;23.10;45.60;;;;;;5093049;28;20016;-77
2021/06/03 10:47:12;;;;;;;5.28;2.08;;;23.00;45.90;;;;;;5093961;28;20024;-77
2021/06/03 10:49:38;;;;;;;8.15;2.35;;;22.90;46.30;;;;;;5094987;28;20365;-77
2021/06/03 10:52:09;;;;;;;5.15;2.00;;;22.90;46.80;;;;;;5094645;28;20408;-77
2021/06/03 10:54:39;;;;;;;6.28;2.20;;;22.80;47.60;;;;;;5111145;28;20458;-77
2021/06/03 10:57:06;;;;;;;5.72;2.20;;;22.80;48.10;;;;;;5094997;28;20433;-77
2021/06/03 10:59:32;;;;;;;10.95;2.30;;;22.70;48.20;;;;;;5095235;28;20034;-77
2021/06/03 11:02:01;;;;;;;5.32;1.95;;;22.80;48.40;;;;;;5094996;28;20473;-78
2021/06/03 11:04:29;;;;;;;5.75;2.45;;;22.80;48.50;;;;;;5094741;28;20024;-77
2021/06/03 11:06:56;;;;;;;5.15;2.65;;;22.90;48.70;;;;;;5095049;28;20039;-78
2021/06/03 11:09:44;;;;;;;7.63;2.42;;;22.90;48.90;;;;;;5093329;28;20458;-78
2021/06/03 11:12:22;;;;;;;5.60;3.13;;;23.10;49.20;;;;;;5093498;28;20034;-78
2021/06/03 11:15:01;;;;;;;9.65;3.50;;;23.20;48.80;;;;;;5097401;28;20107;-78
2021/06/03 11:17:53;;;;;;;11.70;3.17;;;23.20;48.60;;;;;;5094444;28;20099;-78
2021/06/03 11:20:48;;;;;;;9.15;3.38;;;23.20;48.60;;;;;;5095014;28;20453;-77
2021/06/03 11:23:39;;;;;;;10.63;3.33;;;23.00;49.00;;;;;;5095185;28;20024;-78
2021/06/03 11:26:05;;;;;;;8.48;2.90;;;22.90;49.40;;;;;;5094485;28;20032;-78
2021/06/03 11:28:32;;;;;;;8.25;3.20;;;22.80;49.80;;;;;;5094473;28;20055;-78
2021/06/03 11:31:24;;;;;;;9.57;3.20;;;22.80;50.10;;;;;;5094374;28;20020;-78
2021/06/03 11:34:06;;;;;;;5.57;3.47;;;22.90;50.00;;;;;;5094020;28;20046;-78
2021/06/03 11:36:33;;;;;;;9.75;3.38;;;22.90;49.60;;;;;;5093927;28;20056;-78
2021/06/03 11:38:59;;;;;;;10.82;3.22;;;22.90;49.90;;;;;;5079204;28;20035;-78
2021/06/03 11:41:39;;;;;;;6.30;2.72;;;23.10;50.00;;;;;;5092882;28;20032;-78
2021/06/03 11:44:14;;;;;;;8.73;3.03;;;23.20;49.80;;;;;;5079158;28;20081;-78
2021/06/03 11:46:49;;;;;;;5.13;2.85;;;23.40;49.50;;;;;;5093003;28;20078;-78
2021/06/03 11:49:40;;;;;;;8.75;2.42;;;23.70;49.50;;;;;;5079286;28;20115;-78
2021/06/03 11:52:13;;;;;;;7.47;2.58;;;24.00;48.20;;;;;;5094210;28;20032;-78
2021/06/03 11:54:52;;;;;;;11.30;3.15;;;24.10;48.00;;;;;;5093839;28;20044;-78
2021/06/03 11:57:19;;;;;;;9.40;2.80;;;24.30;47.80;;;;;;5093924;28;20044;-78
2021/06/03 11:59:55;;;;;;;11.85;3.80;;;24.20;47.60;;;;;;5094089;28;20388;-78
2021/06/03 12:02:47;;;;;;;12.50;7.32;;;24.20;48.10;;;;;;5093663;28;20020;-78
2021/06/03 12:05:15;;;;;;;15.68;7.88;;;24.20;48.30;;;;;;5090624;28;20044;-78
2021/06/03 12:07:47;;;;;;;13.05;6.15;;;24.20;48.70;;;;;;5093777;28;20029;-78
2021/06/03 12:10:18;;;;;;;6.78;3.33;;;24.20;49.20;;;;;;5093807;28;20099;-78
2021/06/03 12:12:45;;;;;;;9.10;3.40;;;24.30;48.10;;;;;;5093689;28;20038;-78
2021/06/03 12:15:23;;;;;;;13.02;3.35;;;24.50;47.60;;;;;;5094035;28;20043;-78
2021/06/03 12:17:58;;;;;;;7.40;3.20;;;24.50;47.50;;;;;;5092144;28;20024;-78
2021/06/03 12:20:26;;;;;;;6.80;3.35;;;24.40;47.60;;;;;;5092584;28;20386;-78
2021/06/03 12:22:52;;;;;;;6.70;2.83;;;24.40;48.10;;;;;;5093717;28;20095;-78
2021/06/03 12:25:18;;;;;;;7.28;2.55;;;24.40;48.40;;;;;;5093028;28;20036;-78
2021/06/03 12:27:47;;;;;;;7.00;2.40;;;24.40;48.70;;;;;;5093844;28;20024;-78
2021/06/03 12:30:29;;;;;;;5.63;2.33;;;24.50;48.40;;;;;;5109362;28;20111;-78
2021/06/03 12:33:07;;;;;;;9.93;2.50;;;24.60;47.90;;;;;;5092028;28;20024;-78
2021/06/03 12:35:36;;;;;;;6.45;2.53;;;24.70;47.90;;;;;;5093104;28;20170;-77
2021/06/03 12:38:02;;;;;;;8.13;2.38;;;24.70;47.30;;;;;;5093361;28;20390;-78
2021/06/03 12:40:29;;;;;;;7.82;2.28;;;24.80;47.50;;;;;;5092788;28;20023;-77
2021/06/03 12:43:10;;;;;;;9.18;2.38;;;24.90;47.20;;;;;;5092247;28;20027;-77
2021/06/03 12:45:41;;;;;;;12.77;2.53;;;24.80;47.10;;;;;;5108437;28;20081;-76
2021/06/03 12:48:14;;;;;;;4.07;2.30;;;24.60;47.70;;;;;;5091779;28;20114;-78
2021/06/03 12:50:46;;;;;;;8.65;2.30;;;24.50;48.30;;;;;;5092573;28;20031;-77
2021/06/03 12:53:15;;;;;;;8.43;2.58;;;24.50;48.00;;;;;;5092320;28;20024;-77
2021/06/03 12:55:41;;;;;;;11.05;3.10;;;24.50;48.00;;;;;;5091306;28;20028;-77